events-overview

Kinetic Half

 

Overall Men

Lake Anna State Park 4/19/2008 09:00AM

** Results are for the private use of participants and are the Intellectual Property of Set Up Events. Unauthorized use of these results is prohibited.

Place Age Cat. Bib NAME CITY/STATE Rank SWIM Rank T1 Rank BIKE Rank T2 Rank RUN PENALTY TIME DQ
121EM3BENJAMIN BARTLETTARLINGTON VA1700:29:50800:01:44102:22:241900:01:09201:20:1100:04:0004:19:16 
233EM11JOHN HIRSCHBLOCK ISLAND RI1600:29:47200:01:24402:26:21100:00:42301:23:28 04:21:40 
328EM15NICK NOTHOFFWINSTON-SALEM NC2700:30:581300:01:51202:23:091700:01:08601:28:33 04:25:36 
434EM5JOEL BELLNORFOLK VA3300:31:361100:01:46802:28:141200:01:05701:28:53 04:31:32 
529EM7JEREMY CORNMANSEWICKLEY PA2900:31:313500:02:131002:30:305100:01:29501:28:30 04:34:11 
635EM8ERIC DEMPSTERWINCHESTER VA3700:31:583300:02:12602:27:112400:01:121001:31:54 04:34:25 
735EM4JOHN BEHMEHUNTERSVILLE NC3500:31:553400:02:12502:26:3210600:02:081801:36:50 04:39:36 
835 360TOMMY HOLLANDVIRGINIA BEACH VA1100:28:401900:01:571602:33:051500:01:071501:36:09 04:40:57 
931 149JASON JALOSZYNSKICLIO MI2800:31:251500:01:522302:36:089000:01:58801:30:20 04:41:40 
1041 40SCOTT BALDWINRESTON VA4400:32:39900:01:451402:32:36700:00:571201:33:46 04:41:41 
1135 79CHRIS CUMMINSCHARLOTTE NC7700:34:367100:02:401502:32:452500:01:14901:30:58 04:42:10 
1234EM6JAY CALVERTVIRGINIA BEACH VA100:24:22500:01:393602:39:19500:00:491701:36:32 04:42:39 
1339 159ESPEN KATERAASWASHINGTON DC3200:31:351700:01:541102:30:40600:00:562301:38:30 04:43:33 
1439 220STEVE MEININGERCLARKSVILLE MD2100:30:292100:02:001302:31:273600:01:192201:38:29 04:43:42 
1531 118ROBERT GREENMIDLOTHIAN VA7500:34:29400:01:39902:29:22300:00:452601:39:50 04:46:03 
1639 243KEVIN OWENSROCKVILLE MD2300:30:321800:01:542502:37:281600:01:071401:35:57 04:46:57 
1728 265LAT PURSERCHARLOTTE NC2600:30:541000:01:452902:38:011100:01:051601:36:25 04:48:09 
1842MM17STEVEN PETERSONFAIRFAX STATION VA9700:35:585000:02:266802:45:133300:01:17401:25:19 04:50:11 
1929 139ADAM HAWKCHARLOTTE NC12800:37:5113000:03:232402:37:121300:01:051101:32:19 04:51:49 
2033 258DENNIS PIKECARRBORO NC1200:28:413000:02:092602:37:451400:01:063201:42:31 04:52:09 
2143 271ROB REDDYLAKEWOOD OH900:28:057600:02:432202:35:2812700:02:212901:41:4900:04:0004:54:25 
2236 100CRAIG ELLISHERNDON VA11700:37:097000:02:401202:31:022300:01:113101:42:27 04:54:28 
2328 362KEN CORIGLIANOALEXANDRIA VA800:28:002900:02:082702:37:56400:00:464501:45:43 04:54:31 
2449 117DOUGLAS GRAHAMELDERSBURG MD4000:32:154600:02:243302:38:578500:01:542501:39:23 04:54:52 
2545 367JUAN FERNANDO CONDE DONOSONEW CANAAN CT11300:36:562000:01:573502:39:164000:01:212001:37:50 04:57:18 
2630 212DANIEL MCCONNELLWILMINGTON DE12300:37:332300:02:024402:41:322600:01:141301:35:56 04:58:15 
2744 178DANIEL LABARCASTERLING VA5000:32:494100:02:185402:42:299800:02:042401:39:13 04:58:51 
2831 241JASON ORAKERARLINGTON VA2200:30:3112900:03:223802:39:276400:01:403601:44:06 04:59:04 
2937C123RYAN GROVEPITTSBURGH PA3400:31:537300:02:414802:42:035200:01:292701:41:08 04:59:12 
3036 308JONATHAN STECKBECKALEXANDRIA VA13600:38:1510900:03:081702:33:205500:01:323301:42:59 04:59:12 
PlaceAgeCat.BibNAMECITY/STATERankSWIMRankT1RankBIKERankT2RankRUNPENALTYTIMEDQ
3138 124ANTHONY GUIDAWASHINGTON DC5200:33:1912600:03:204902:42:085300:01:292801:41:47 05:02:02 
3251 207FRANK MAZURLUSBY MD4500:32:394800:02:254502:41:418400:01:544401:45:40 05:04:18 
3335 41BRIAN BALGAARDWASHINGTON DC6000:33:351200:01:477102:45:562200:01:103001:41:58 05:04:25 
3444 314MICHAEL STICKELCALIFON NJ3900:32:125300:02:286202:43:542100:01:104101:45:01 05:04:43 
3551 250PAUL PATTERSONWYNCOTE PA11500:36:588200:02:474302:40:538000:01:513401:43:07 05:05:33 
3635C338ROBERT VILLANUEVABALTIMORE MD16800:40:364000:02:181902:34:467100:01:464601:46:18 05:05:42 
3741 205RAYMOND MATTHEWSARLINGTON VA1900:30:132400:02:043102:38:394200:01:236201:53:40 05:05:57 
3830 73MARK CONOVERARLINGTON VA5300:33:226700:02:378702:50:1010500:02:072101:38:22 05:06:37 
3937 210JAY MCABIERCHAGRIN FALLS OH8000:34:50600:01:424202:40:372800:01:155301:48:28 05:06:49 
4031 156JOSH KAHNEYINDIAN HEAD MD9000:35:288500:02:492002:35:055600:01:336001:53:36 05:08:28 
4125 80GRANT CURRYCHESTNUT HILL MA4900:32:479000:02:591802:33:5113900:02:327201:56:23 05:08:30 
4225 130MATT HAMBRIGHTBLOWING ROCK NC10900:36:3912200:03:165202:42:194400:01:254001:44:58 05:08:36 
4336 278DARRYL RODGERSNEW YORK NY1300:28:4311500:03:146002:43:4512900:02:245801:51:22 05:09:25 
4436 167RANDALL KISERRESTON VA10400:36:185800:02:315502:42:384300:01:254701:47:02 05:09:52 
4537 277JEFF ROBINSONWASHINGTON DC3000:31:348600:02:538402:49:235700:01:343901:44:53 05:10:15 
4634 105JASON FAULKNERRICHMOND VA13700:38:262500:02:055702:43:151800:01:084201:45:25 05:10:16 
4743 273ISIDORO REVERTEOAK HILL VA7200:34:1310400:03:055302:42:228700:01:555501:49:11 05:10:44 
4839 335JED VANICHKACHORNGLEN ALLEN VA6200:33:374400:02:217302:46:031000:01:025201:47:47 05:10:47 
4949 148GEORGE JACOBSLAUREL MD13800:38:299500:03:023402:39:0012100:02:175401:48:58 05:11:44 
5032 50EDWARD BRADLEYDICKERSON MD5800:33:328400:02:4912502:56:4410100:02:061901:37:40 05:12:49 
5133 332JASON TOOTELLHAMILTON VA4100:32:178300:02:4810002:51:447800:01:503701:44:38 05:13:15 
5249 103DAVID FABIANCHATHAM NJ4600:32:412700:02:054702:41:532000:01:097001:56:00 05:13:46 
5327 116JOE GORGOLVIRGINIA BEACH VA6100:33:3713600:03:309302:50:5610200:02:063501:43:44 05:13:51 
5443 189MARK LEVYOWINGS MILLS MD5900:33:3512300:03:188102:47:4711100:02:115101:47:26 05:14:15 
5532 320DAMON TAAFFEARLINGTON VA5700:33:323100:02:103902:39:425000:01:297701:58:29 05:15:20 
5649 208JOHN MAZURALEXANDRIA VA4300:32:3810600:03:059002:50:367300:01:485001:47:21 05:15:25 
5731EM16DAVID ORTONRESTON VA600:26:591400:01:516502:44:314600:01:278802:02:15 05:17:02 
5851 289THOMAS SEYMOURNAPA CA6700:33:581600:01:545802:43:223400:01:187501:57:21 05:17:50 
5941 201HERRING MARIONRICHMOND VA1500:29:374900:02:2612302:56:3214000:02:324901:47:17 05:18:22 
6043 51CHARLES BRODSKYWASHINGTON DC19500:43:1020200:05:2417903:12:5010400:02:07101:15:14 05:18:43 
6138 106ADRIAN FENTYWASHINGTON DC13000:37:5614900:03:568502:49:2510000:02:064301:45:27 05:18:48 
PlaceAgeCat.BibNAMECITY/STATERankSWIMRankT1RankBIKERankT2RankRUNPENALTYTIMEDQ
6260 352WILLIAM WRENARLINGTON VA1800:30:1010000:03:048602:49:466900:01:446601:54:35 05:19:17 
6333 313MICHAEL STENSONFARMINGTON PA4800:32:4210200:03:057902:47:339400:02:006501:54:34 05:19:51 
6432 36CARY AYERSRICHMOND VA6400:33:419800:03:037002:45:3618500:03:426301:53:54 05:19:55 
6529 85ALVARO DE LA CUEVAARLINGTON VA16600:40:262600:02:056402:44:223100:01:165901:52:34 05:20:40 
6627EM12TAYLOR KNIGHTNORFOLK VA10000:36:06700:01:436902:45:354500:01:267101:56:11 05:20:59 
6735 49THANE BOYSENCARY NC8300:34:589400:03:016102:43:492700:01:147601:58:15 05:21:16 
6844 104TIMOTHY FALLERNORFOLK VA1400:29:253200:02:112802:37:573200:01:1612102:14:31 05:25:18 
6934 255RYAN PETTENGILLWASHINGTON DC4200:32:3314700:03:4914603:02:0212800:02:233801:44:48 05:25:34 
7021 64PATRICK CAVAZOSANNAPOLIS MD14700:38:5711100:03:087702:46:5015200:02:416701:54:37 05:26:12 
7129 364CHARLES PATTENGAINESVILLE VA9400:35:336200:02:337802:47:028800:01:558101:59:16 05:26:17 
7253 71ROB COLBURNASHBURN VA8100:34:556500:02:3410202:51:517200:01:477301:56:30 05:27:35 
7330 168KRIS KITZKERICHMOND VA500:26:218900:02:555902:43:2610800:02:1011602:12:53 05:27:42 
7432 237DAN OCONNELLRESTON VA700:27:133700:02:166302:43:564800:01:2811902:14:10 05:29:00 
7540 310DOUG STEELEASHBURN VA6600:33:4714000:03:349502:51:058900:01:568201:59:41 05:30:00 
7647 186CHARLES LEECHARLOTTE NC7300:34:149100:02:5911702:55:224100:01:227401:56:30 05:30:26 
7741 305RICHARD STALLINGSFAIRFAX VA9200:35:304300:02:208002:47:369600:02:009102:05:03 05:32:28 
7829 288DANIEL SERPICOELLICOTT CITY MD1000:28:1710300:03:059802:51:4313400:02:299702:07:12 05:32:44 
7946 358KURT WOHLERSPOTSYLVANIA VA18500:42:0819300:05:023002:38:1711000:02:119202:05:39 05:33:15 
8038 266RICHARD QUICKFALLVIENNA VA9300:35:3111900:03:1413202:58:0110700:02:086401:54:28 05:33:21 
8128 226STEPHEN MOHRWASHINGTON DC200:25:1210500:03:0512602:56:468200:01:539602:06:50 05:33:45 
8237C138GLEN HATTONRICHMOND VA16000:39:5420300:05:254602:41:438600:01:549002:05:01 05:33:55Y
8338C247BREVEN PARSONSALEXANDRIA VA10700:36:3015800:04:0810102:51:444900:01:288602:00:37 05:34:25 
8432 69SHAWN CLARKRESTON VA7900:34:4311400:03:103702:39:206800:01:4312702:15:33 05:34:27 
8533 217PAUL MCKEITHANRALEIGH NC16900:40:374500:02:2414703:02:0414600:02:354801:47:17 05:34:56 
8627 63CHRISTOPHER CAUSEBROOKCHARLOTTE NC20000:43:469900:03:034002:39:456700:01:419502:06:49 05:35:02 
8719 152JASON JONESRALEIGH NC2500:30:5218700:04:4716903:08:599300:01:595601:49:43 05:36:18 
8837 270CHRISTOPHER RATCHFORDMIDLOTHIAN VA7800:34:392800:02:086602:44:373900:01:2112202:14:48 05:37:31 
8937 125CHRIS GURTCHEFFRINGOES NJ2400:30:346900:02:396702:44:599900:02:0513402:17:27 05:37:43 
9055 39GENE BACHMANVIRGINIA BEACH VA14400:38:4611600:03:1411902:55:396500:01:407901:58:48 05:38:05 
9147 97BOB EBSARYKINGSTON XX15500:39:278700:02:5411402:54:3212500:02:208001:58:54 05:38:05 
9238 260CHARLES PORTASHBURN VA14100:38:3013800:03:3211602:54:527700:01:508301:59:49 05:38:31 
PlaceAgeCat.BibNAMECITY/STATERankSWIMRankT1RankBIKERankT2RankRUNPENALTYTIMEDQ
9336 254JOHN PERCHERKEBRISTOW VA18700:42:1013200:03:2612802:57:3712300:02:186101:53:37 05:39:07 
9441 133T. HARRISCHARLOTTESVILLE VA5100:32:573800:02:188902:50:256000:01:3511202:12:26 05:39:38 
9531 74PHILLP CONSENTINOWASHINGTON DC17300:41:0821400:05:5010602:53:0219500:04:086901:55:44 05:39:49 
9622 32JOSH ANDRESANNAPOLIS MD300:25:244200:02:1812902:57:4121800:05:4510202:09:22 05:40:29 
9738 333CLAUDE TUDORSPRINGFIELD VA5500:33:306100:02:327602:46:242900:01:1513202:17:20 05:40:59 
9828 53ELIJAH BUSHSPRINGFIELD VA20600:44:1717100:04:2013402:58:5516100:02:555701:51:02 05:41:27 
9947 334DAVID TURVENEARLINGTON VA13200:38:0210700:03:078302:48:229700:02:0210502:10:27 05:41:57 
10052 326ANTHONY THOMASCLEVELAND HEIGHTS OH9600:35:5419000:04:528202:48:0812400:02:1912002:14:14 05:45:26 
10142 129GARTH HAHNALEXANDRIA VA15200:39:0813300:03:2610502:52:4614400:02:359902:07:49 05:45:42 
10231 363JAMES PEARSONFALLS CHURCH VA15800:39:508000:02:467502:46:217000:01:4412602:15:24 05:46:03 
10336 81JOE DANYLIWNEW YORK NY17100:40:597800:02:4511302:54:2210900:02:109302:05:56 05:46:10 
10441 350DAVID WILLIAMSALEXANDRIA VA17500:41:2717700:04:317402:46:1217500:03:2410902:11:37 05:47:10 
10541 1ERIC AABYVIRGINIA BEACH VA13100:37:5716300:04:1213602:59:1020700:04:418702:01:22 05:47:20 
10642MC235RAYMOND NANCOZFALLS CHURCH VA8900:35:2314500:03:4710302:52:3515900:02:5311502:12:52 05:47:28 
10747 35ALAN ARRUDAWILLIAMSBURG VA16200:40:025500:02:2911202:54:06900:00:5910402:09:59 05:47:32 
10841 347THOMAS WHIPPLEPORT MATILDA PA4700:32:4117400:04:2314303:00:3713300:02:289802:07:29 05:47:36 
10932 219JOHN MEADWASHINGTON DC10500:36:196600:02:359402:51:006200:01:3813102:16:34 05:48:04 
11038 315JAMEY STOWELLWASHINGTON DC3100:31:3514200:03:3512702:57:0615000:02:3811802:13:35 05:48:26 
11135 90ROSS DOWNEYSHAKER HEIGHTS OH2000:30:2712400:03:2011502:54:4315100:02:3913602:18:25 05:49:32 
11228 182MATT LANDMEIERHERNDON VA11900:37:1419400:05:059902:51:4417900:03:3211102:12:19 05:49:52 
11323 14BEN MEYERSANNAPOLIS MD17200:41:0611800:03:1416403:07:013800:01:207801:58:30 05:51:09 
11438 110ED GARLEPPFAIRFAX VA8800:35:2112500:03:2013802:59:3713000:02:2510702:11:01 05:51:41 
11534 316MATHIEU STREMSDOERFERCOLUMBUS OH7000:34:085600:02:2915203:03:177400:01:4810602:10:36 05:52:16 
11639 330MATTHEW TOGOROANOKE VA5400:33:277500:02:428802:50:1511600:02:1415602:24:02 05:52:39 
11743 99CHRIS EDMONDSONCHANTILLY VA6800:34:0418500:04:4318503:14:2819900:04:106801:55:17 05:52:41 
11832 143DANIEL HOMABLACKSBURG VA17700:41:3213500:03:304102:39:559200:01:5916302:26:20 05:53:14 
11928 57MICHAEL CALEYSTAFFORD VA13900:38:292200:02:0012202:56:166600:01:4112302:15:01 05:53:25 
12039 187MARTIN LENOIRGLEN ALLEN VA7600:34:336400:02:349202:50:487500:01:4915502:23:59 05:53:41 
12142 253RAY PELOSOFAIRFIELD CT7100:34:1217200:04:2115303:03:2213100:02:2510302:09:26 05:53:45 
12245MC263AARON PRUSSINBLACKSBURG VA21800:47:0015000:03:5714403:00:507600:01:498502:00:34 05:54:09 
12347 223GREG MILLERSUFFOLK VA12600:37:4512800:03:229702:51:343000:01:1514602:20:46 05:54:40 
PlaceAgeCat.BibNAMECITY/STATERankSWIMRankT1RankBIKERankT2RankRUNPENALTYTIMEDQ
12449 251JOSEPH PAZNEW HOPE PA11600:37:0718200:04:3913902:59:4417100:03:1611702:13:21 05:58:05 
12538 55RALPH BUTLERCHESAPEAKE VA17000:40:4911300:03:1014102:59:5811500:02:1310002:07:5900:04:0005:58:08 
12623 322RYAN TALMADGEANNAPOLIS MD11400:36:5613400:03:2717303:09:4212000:02:179402:06:04 05:58:24 
12725 259KEVIN PILCHERSAN DIEGO CA10800:36:366000:02:3213002:57:428300:01:5314402:20:27 05:59:08 
12827 242ROMAN ORTEGA JR.ALEXANDRIA VA19100:43:0014100:03:3510402:52:4313200:02:2713002:16:1800:04:0006:02:00 
12927 45FABRICE BEAULIEUFALLS CHURCH VA11200:36:554700:02:2412102:56:125800:01:3416502:27:26 06:04:30 
13059 119JOHN GREGORYROANOKE VA11800:37:0914600:03:4712402:56:387900:01:5016002:25:55 06:05:18 
13140 366MICHAEL BOOKSTEINDUMFRIES VA15000:39:0720000:05:2019303:16:3416400:03:008902:03:00 06:06:59 
13252 44JEFFREY BARNESONCAMBRIDGE MA19600:43:1317900:04:3611002:53:4315600:02:4615002:23:28 06:07:45 
13338 239BRAD OLIVERALEXANDRIA VA12900:37:5215700:04:0713102:57:5718800:03:4514502:20:3900:04:0006:08:18 
13427C296T. ISAAC SIMERLYALEXANDRIA VA20400:43:5922700:07:3015903:05:5915700:02:4810102:08:10 06:08:25 
13547MC34TODD ARCHIBALDMT AIRY MD14200:38:4416400:04:1315003:02:3816800:03:0714202:19:46 06:08:26 
13635 76JASON COXMOUNT AIRY MD18600:42:0911700:03:1414503:01:3815400:02:4413802:18:56 06:08:41 
13732 171JUSTIN N. KOHRSALEXANDRIA VA21600:46:229700:03:0316303:06:589100:01:5810802:11:05 06:09:25 
13833 236JOHN NASHSTAFFORD VA14500:38:4718100:04:3814803:02:0721500:05:1612502:15:1900:04:0006:10:05 
13939 128PAUL HAGARFREDERICKSBURG VA14900:39:0516600:04:1510902:53:4314300:02:3317102:30:45 06:10:19 
14064 111DAVID GEARINARLINGTON VA20800:44:1917500:04:2614002:59:5517300:03:2313702:18:34 06:10:37 
14146 337DETLEF VIETENLEXINGTON PARK MD15700:39:3614400:03:439602:51:2411800:02:1617702:34:05 06:11:03 
14221 37JAIME AZUAJELYNCHBURG VA13500:38:0915400:04:0115603:04:204700:01:2715102:23:29 06:11:24 
14342MC252JOEL PEARSONMANASSAS PARK VA16400:40:153600:02:1415803:05:4513800:02:3114702:20:55 06:11:38 
14446 163BILL KIESTLERCHESAPEAKE VA9500:35:3616800:04:1716803:08:5716500:03:0214302:19:58 06:11:47 
14554 256GRANT PETTRIEALEXANDRIA VA22000:48:3112100:03:1516203:06:5114700:02:3611002:11:57 06:13:07 
14648 275JIM RIOSACHARLOTTESVILLE VA           06:13:23 
14721 141BRANDON HENDRICKSONSTAFFORD VA5600:33:3213700:03:3016603:08:0912200:02:1816702:28:22 06:15:49 
14834 197JOHN MAHERSTAFFORD VA12500:37:4222100:06:1617103:09:3121100:04:5813502:18:16 06:16:41 
14949 142STEVEN HERRONCHESAPEAKE VA19300:43:0718000:04:379102:50:435400:01:3018002:36:51 06:16:47 
15053 269THOMAS RANDOLPHVIRGINIA BEACH VA14600:38:5715900:04:0915703:04:3417200:03:2016102:25:56 06:16:53 
15133 48MARTIN BOWLINGBURKE VA16100:40:0022000:06:1015103:02:5418100:03:3515802:24:20 06:16:58 
15247MC199CHRIS MALONEMIDDLEBURG VA15600:39:305700:02:3112002:55:4118700:03:4417902:35:43 06:17:07 
15335 144MAX HUFFMANWASHINGTON DC9900:36:0210100:03:0518603:14:4615500:02:4614902:21:48 06:18:25 
15439C211COLLIN MCCAFFERYARLINGTON VA7400:34:227900:02:455602:42:5817600:03:2719602:55:25 06:18:55 
PlaceAgeCat.BibNAMECITY/STATERankSWIMRankT1RankBIKERankT2RankRUNPENALTYTIMEDQ
15547 38BILL BACCILEESBURG VA12200:37:3013100:03:2617503:10:2620800:04:4815702:24:05 06:20:13 
15664 112DENNIS GEISERPITTSBORO NC19400:43:0814300:03:3516703:08:303700:01:1915402:23:49 06:20:20 
15731 303ROBERT SODERHOLMMIDLOTHIAN VA14800:39:0514800:03:5320503:21:0417800:03:3112802:15:55 06:23:25 
15833 65ERIC CHERNIKOVICHLANGHORNE PA    18303:14:1020900:04:5616802:28:25 06:24:05Y
15932 114JOSHUA GOODCAMBRIDGE MA14000:38:3022500:06:4418403:14:1822200:06:2413902:19:00 06:24:54 
16036 234DAVID NAELONDAVIDSON NC15400:39:1710800:03:0710802:53:4116900:03:0719302:47:07 06:26:18 
16126 218JOSHUA MCQUEENRESTON VA10600:36:2915500:04:0217403:10:1016000:02:5517502:33:12 06:26:46 
16241 47BRADFORD BLACKCHARLOTTE NC20900:44:4520500:05:2917703:10:5614800:02:3615202:23:37 06:27:22 
16333 282DOUGLAS SACKINARLINGTON VA21400:45:3420600:05:3119603:18:1619000:03:5012402:15:04 06:28:14 
16444 115KAI GOODRICHARLINGTON VA20700:44:1818400:04:4321003:24:3716200:02:5711302:12:42 06:29:16 
16536 145STEPHEN HUNNIUSALEXANDRIA VA8600:35:1920800:05:3819003:15:1919400:04:0716902:30:11 06:30:32 
16632 292TODD SHOEMAKERWASHINGTON DC22600:50:2018800:04:4722203:32:4816600:03:028401:59:59 06:30:54 
16731 122PAUL GROSSFALLS CHURCH VA8500:35:0513900:03:3319503:18:139500:02:0017402:32:08 06:30:57 
16840 181JEFFREY LAMCHARLOTTESVILLE VA19800:43:3018900:04:4819803:18:3516700:03:0614802:21:44 06:31:40 
16949 82JOHN DAUGHERTYVIRGINIA BEACH VA21500:46:0022800:07:4220703:22:0118600:03:4311402:12:46 06:32:11 
17029 342JEFF WALTONARLINGTON VA12000:37:2821100:05:4321603:29:1018000:03:3314102:19:10 06:35:03 
17148 136CARL HASELDEN JRSTAFFORD VA8200:34:589600:03:0218803:15:0710300:02:0718502:41:09 06:36:21 
17238C198STEVE MAKRANCZYLEESBURG VA17900:41:3712700:03:2216103:06:4017000:03:1018702:41:56 06:36:42 
17343 31BRUCE ALLENTUCKNORTH POTOMAC MD14300:38:456300:02:3418103:13:0613700:02:3018402:40:42 06:37:35 
17447 54BRIAN BUSHICKALEXANDRIA VA21300:45:1016900:04:1717203:09:4017400:03:2417302:31:2700:04:0006:37:56 
17535 323ROMMEL TAMAYOVIRGINIA BEACH VA17600:41:3121800:06:0021903:30:3918200:03:3514002:19:04 06:40:47 
17647 317DOUG SULLIVANCLARKSVILLE MD22800:51:3521200:05:4319203:15:4315800:02:5215902:24:56 06:40:48 
17740 225ALEX MIRKOWBETHESDA MD18300:41:5320700:05:3522303:33:1920000:04:1012902:15:59 06:40:56 
17852 298JONATHAN SLEEPHERNDON VA21200:45:0915300:04:0020903:23:4511900:02:1616602:27:49 06:42:58 
17948 344MICHAEL WARWICKFAIRFAX STATION VA12400:37:3420900:05:4122103:31:1121200:04:5815302:23:40 06:43:02 
18050 108MICHAEL FRIDLEYPOWHATAN VA19700:43:2115100:03:5821503:27:346300:01:3816402:26:40 06:43:10 
18136 153STEPHEN JONESCHARLOTTE NC22900:51:3719100:04:5520103:19:3311300:02:1216202:26:05 06:44:20 
18240 94ANDREW DUNSCOMBWASHINGTON DC22400:48:4220100:05:2216503:07:4221700:05:3618102:37:50 06:45:11 
18338 293JODY SHOUSESPRINGFIELD VA17800:41:3618600:04:4518903:15:0919600:04:0918302:40:14 06:45:50 
18424 58RORY CALHOUNSTAFFORD VA12700:37:488800:02:5420803:23:1319800:04:0918202:37:57 06:46:00 
18570 345JOHN WEBERNEW YORK NY16700:40:3323200:14:3017803:12:0820100:04:1417802:35:27 06:46:50 
PlaceAgeCat.BibNAMECITY/STATERankSWIMRankT1RankBIKERankT2RankRUNPENALTYTIMEDQ
18640 240MICHAEL O'NEILSTAFFORD VA21000:44:5218300:04:4221103:24:4313500:02:2917202:30:54 06:47:40 
18728 195MATTHEW LYNNFALLS CHURCH VA15100:39:0717000:04:1819403:17:3520600:04:2419202:44:50 06:50:12 
18836C351MATT WOLFEARLINGTON VA10100:36:116800:02:3723003:52:3013600:02:3013302:17:27 06:51:13 
18938 261CHUCK POTTERCAMBRIDGE MD13400:38:077200:02:4013502:59:005900:01:3420303:10:55 06:52:15 
19023 95DAVID DURKINGIBSONIA PA16300:40:0519800:05:1114903:02:2219100:03:5419803:02:06 06:53:37 
19128 222BRENDON MILLERWASHINGTON DC17400:41:0917300:04:2320403:20:3521400:05:1519002:42:49 06:54:09 
19234 245JOHN PARKERFREDERICKSBURG VA21900:48:0820400:05:2621303:25:2611700:02:1617602:33:25 06:54:39 
19343 92BRANDON DUBOISARLINGTON VA22200:48:3716000:04:1022003:30:5814200:02:3317002:30:24 06:56:41 
19440C67BRIAN CLARKMARTINSBURG WV18100:41:5112000:03:1410702:53:2020200:04:1520503:20:35 07:03:13 
19538 339FELIX VLADTOANO VA22300:48:4122400:06:3221203:24:5218400:03:4118602:41:09 07:04:53 
19626 214JEFF MCDONALDARLINGTON VA19000:42:4521000:05:4219703:18:3220300:04:1719502:54:17 07:05:31 
19741 88FRANK DIMEOFALLS CHURCH VA11100:36:5216700:04:1520303:20:3322400:08:0619702:57:24 07:07:08 
19849 134DOUGLAS HARTMANSPRINGFIELD VA23201:06:2616200:04:1218703:15:0311200:02:1218802:42:14 07:10:05 
19933C200BRUCE MALYARLINGTON VA19200:43:0523100:13:4821403:26:5420400:04:1819402:47:52 07:15:54 
20037 297BRYAN SIMMONSFREDERICKSBURG VA22100:48:3421700:05:5822503:40:1415300:02:4319102:44:39 07:22:07 
20127 66PETER CHRISTENSENRESTON VA15300:39:1016500:04:1321703:29:5122100:06:1319903:04:26 07:23:50 
20246 354BRAD YODERCHARLOTTESVILLE VA20200:43:5221300:05:4818003:12:5319700:04:0920403:19:10 07:25:50 
20361 158GREG KAPUTATAMPA FL23000:56:2221900:06:0822603:42:0621600:05:2318902:42:23 07:32:21 
20427C341BRIAN WALSHRESTON VA16500:40:2219500:05:0522703:45:3519200:03:5820203:09:30 07:44:28 
20552MC284JON SASSERRALEIGH NC21700:46:3922200:06:1822803:47:0021300:05:0320103:09:12 07:54:09 
20643 349ALAN WIGGSRALEIGH NC22500:49:5622300:06:3221803:30:2422300:06:4320603:21:21 07:54:54 
20750C281MIKE RYANSPRINGFIELD VA23100:59:1521600:05:5522903:48:0614900:02:3820003:06:13 08:02:05 
20839 188DAVID LETTBURKE VA18000:41:4311000:03:0813302:58:2814100:02:32  00:04:00  
20937 356MATTHEW ZEMMELMANWINCHESTER VA18800:42:125400:02:2814203:00:2714500:02:35  00:04:00  
21042 140WES HAYESSOUTHBRIDGE VA6300:33:41300:01:273202:38:56200:00:43     
21138EM13JOHN MCGARVAMECHNICSVILLE VA8700:35:207700:02:43302:23:25800:00:58     
21234 336ARTHUR VERREAULTVIRGINIA BEACH VA6900:34:067400:02:4120603:21:173500:01:18     
21327 224NATHAN MILLERRESTON VA19900:43:419200:02:595102:42:166100:01:37     
21436 170KRISTOPH KOCANMEADVILLE PA3600:31:555200:02:287202:45:588100:01:51     
21543 353THOMAS WRIGHTRICHMOND VA10200:36:1415600:04:0519103:15:3011400:02:13     
21629EM19MICHAEL SEVIERHERNDON VA400:25:34100:01:22702:27:5612600:02:20     
PlaceAgeCat.BibNAMECITY/STATERankSWIMRankT1RankBIKERankT2RankRUNPENALTYTIMEDQ
21754 169STEVE KNOTTVIRGINIA BEACH VA11000:36:5111200:03:0913702:59:2116300:02:57     
21839 209BRIAN MC BREENWASHINGTON DC12100:37:3017800:04:3211802:55:3617700:03:27     
21941 276JOHN ROBERTSWOODBRIDGE VA18400:42:0116100:04:1019903:18:4618300:03:39     
22047 59SCOTT CAMPBELLRICHMOND VA9800:36:0019700:05:1117003:09:2318900:03:49     
22135 280JASON ROSSRICHMOND VA21100:44:5419200:05:0120203:19:5719300:04:05     
22233C121TIM GRETENARLINGTON VA8400:35:0017600:04:2923103:56:5020500:04:18     
22350 194PAUL LUCHACHESAPEAKE VA22700:50:4615200:04:0017603:10:4821000:04:56     
22431 193WEI LUMONTGOMERY VILLAGE MD18200:41:5222600:06:5315503:04:0121900:05:48     
22527 190JAMES LLOYDNORFOLK VA20500:44:0722900:08:0218203:13:2322000:05:57     
22629 161KEVIN KENDRONEW MARKET MD10300:36:153900:02:182102:35:17       
22739UM359ROB RUSSELLARLINGTON VA20300:43:585900:02:315002:42:13       
22840UM29DARIO TIRADOARLINGTON VA18900:42:408100:02:4711102:53:49       
22949MC150KIP JAWISHFREDERICK MD13300:38:039300:03:0115403:03:36       
23038UM23DAVID COXLYNCHBURG VA9100:35:3019600:05:0616003:06:20       
23151UM30DENNIS WHITEFREDERICKSBURG VA15900:39:5319900:05:1820003:19:20       
23231UM26PETE JURATOVICALEXANDRIA VA20100:43:4921500:05:5122403:37:51       
23331 203SHAWN MARKEYNEWARK DE6500:33:4223000:09:3123204:22:32       
23435EM2CHRIS BACHLALEXANDRIA VA3800:32:075100:02:28         

** Results are for the private use of participants and are the Intellectual Property of Set Up Events. Unauthorized use of these results is prohibited.